Time;durP1;ratioP1;P1;durP2;ratioP2;P2;SDS_P1;SDS_P2;PMS_P1;PMS_P2;Temp;Humidity;BMP_temperature;BMP_pressure;BME280_temperature;BME280_humidity;BME280_pressure;Samples;Min_cycle;Max_cycle;Signal;HPM_P1;HPM_P2
2023/12/03 00:01:20;;;;;;;9.20;6.70;;;;;;;;;;5083049;28;20220;-38
2023/12/03 00:03:47;;;;;;;9.33;6.77;;;;;;;;;;5078021;28;20254;-35
2023/12/03 00:06:14;;;;;;;8.43;5.53;;;;;;;;;;5093693;28;20253;-36
2023/12/03 00:08:43;;;;;;;9.17;6.50;;;;;;;;;;5083961;28;20267;-33
2023/12/03 00:11:10;;;;;;;8.37;6.27;;;;;;;;;;5075788;28;20209;-35
2023/12/03 00:13:37;;;;;;;9.47;6.50;;;;;;;;;;5091431;28;20208;-32
2023/12/03 00:16:05;;;;;;;7.27;5.97;;;;;;;;;;5082381;28;20216;-37
2023/12/03 00:18:32;;;;;;;9.73;5.83;;;;;;;;;;5085817;28;20217;-35
2023/12/03 00:21:00;;;;;;;7.53;5.40;;;;;;;;;;5088886;28;20279;-33
2023/12/03 00:23:27;;;;;;;10.77;6.80;;;;;;;;;;5078773;28;20654;-35
2023/12/03 00:25:56;;;;;;;9.27;5.93;;;;;;;;;;5097185;28;20310;-36
2023/12/03 00:28:23;;;;;;;9.27;6.03;;;;;;;;;;5070735;28;20217;-33
2023/12/03 00:30:50;;;;;;;9.53;6.30;;;;;;;;;;5078938;28;20201;-36
2023/12/03 00:33:17;;;;;;;10.47;6.60;;;;;;;;;;5087854;28;20214;-36
2023/12/03 00:35:44;;;;;;;10.37;6.90;;;;;;;;;;5096263;28;20268;-33
2023/12/03 00:38:11;;;;;;;8.73;6.37;;;;;;;;;;5097068;28;20200;-33
2023/12/03 00:40:39;;;;;;;11.90;6.70;;;;;;;;;;5075531;28;20220;-32
2023/12/03 00:43:07;;;;;;;10.63;7.13;;;;;;;;;;5104479;28;20204;-39
2023/12/03 00:45:34;;;;;;;9.57;6.40;;;;;;;;;;5072269;28;20310;-33
2023/12/03 00:48:02;;;;;;;11.37;6.03;;;;;;;;;;5084796;28;20291;-31
2023/12/03 00:50:29;;;;;;;8.27;5.83;;;;;;;;;;5080880;28;20224;-36
2023/12/03 00:52:56;;;;;;;8.93;6.37;;;;;;;;;;5091298;28;20205;-35
2023/12/03 00:55:23;;;;;;;11.87;7.13;;;;;;;;;;5078629;28;20311;-34
2023/12/03 00:57:50;;;;;;;9.70;6.50;;;;;;;;;;5082682;28;20660;-31
2023/12/03 01:00:19;;;;;;;9.83;7.13;;;;;;;;;;5073357;28;20201;-31
2023/12/03 01:02:46;;;;;;;10.13;6.77;;;;;;;;;;5103471;28;20212;-34
2023/12/03 01:05:13;;;;;;;8.00;6.27;;;;;;;;;;5109110;28;20223;-33
2023/12/03 01:07:40;;;;;;;9.40;6.70;;;;;;;;;;5090931;28;20232;-35
2023/12/03 01:10:08;;;;;;;10.57;7.20;;;;;;;;;;5093175;28;20196;-37
2023/12/03 01:12:35;;;;;;;10.47;6.87;;;;;;;;;;5088210;28;20197;-34
2023/12/03 01:15:03;;;;;;;9.83;6.50;;;;;;;;;;5071568;28;20260;-31
2023/12/03 01:17:31;;;;;;;9.83;6.67;;;;;;;;;;5082923;28;20240;-35
2023/12/03 01:19:58;;;;;;;9.97;7.03;;;;;;;;;;5109204;28;20291;-33
2023/12/03 01:22:25;;;;;;;9.23;6.80;;;;;;;;;;5085395;28;20680;-34
2023/12/03 01:24:52;;;;;;;11.93;6.77;;;;;;;;;;5093546;28;20224;-33
2023/12/03 01:27:19;;;;;;;9.23;6.50;;;;;;;;;;5083295;28;20196;-36
2023/12/03 01:29:47;;;;;;;11.43;6.93;;;;;;;;;;5088080;28;20193;-35
2023/12/03 01:32:14;;;;;;;12.10;7.90;;;;;;;;;;5089038;28;20219;-35
2023/12/03 01:34:42;;;;;;;10.00;7.00;;;;;;;;;;5084696;28;20316;-36
2023/12/03 01:37:10;;;;;;;9.60;7.47;;;;;;;;;;5093432;28;20292;-35
2023/12/03 01:39:37;;;;;;;9.10;6.20;;;;;;;;;;5084077;28;20212;-36
2023/12/03 01:42:05;;;;;;;8.67;6.27;;;;;;;;;;5103228;28;20577;-35
2023/12/03 01:44:32;;;;;;;10.97;7.37;;;;;;;;;;5085374;28;20229;-35
2023/12/03 01:46:59;;;;;;;10.40;7.50;;;;;;;;;;5095906;28;20237;-33
2023/12/03 01:49:26;;;;;;;8.73;6.13;;;;;;;;;;5098235;28;20367;-32
2023/12/03 01:51:55;;;;;;;8.50;6.33;;;;;;;;;;5086510;28;20198;-33
2023/12/03 01:54:22;;;;;;;8.93;7.10;;;;;;;;;;5085667;28;20228;-32
2023/12/03 01:56:49;;;;;;;10.37;7.03;;;;;;;;;;5102467;28;20207;-35
2023/12/03 01:59:16;;;;;;;10.20;6.53;;;;;;;;;;5088180;28;20208;-35
2023/12/03 02:01:45;;;;;;;8.47;6.17;;;;;;;;;;5070861;28;20213;-30
2023/12/03 02:04:12;;;;;;;10.90;7.40;;;;;;;;;;5086746;28;20695;-36
2023/12/03 02:06:39;;;;;;;9.47;6.67;;;;;;;;;;5107416;28;20196;-30
2023/12/03 02:09:08;;;;;;;10.50;7.60;;;;;;;;;;5085201;28;20308;-33
2023/12/03 02:11:35;;;;;;;10.03;6.30;;;;;;;;;;5075025;28;20212;-31
2023/12/03 02:14:03;;;;;;;9.97;6.93;;;;;;;;;;5084741;28;20222;-36
2023/12/03 02:16:32;;;;;;;12.63;6.80;;;;;;;;;;5081167;28;20211;-33
2023/12/03 02:18:59;;;;;;;11.00;7.70;;;;;;;;;;5085069;28;20235;-36
2023/12/03 02:21:27;;;;;;;9.43;6.70;;;;;;;;;;5096324;28;20316;-34
2023/12/03 02:23:55;;;;;;;9.27;7.17;;;;;;;;;;5086320;28;20253;-36
2023/12/03 02:26:23;;;;;;;9.03;6.73;;;;;;;;;;5092434;28;20206;-35
2023/12/03 02:28:50;;;;;;;10.97;6.80;;;;;;;;;;5085947;28;20203;-34
2023/12/03 02:31:17;;;;;;;10.80;7.47;;;;;;;;;;5082157;28;20213;-35
2023/12/03 02:33:48;;;;;;;10.33;6.10;;;;;;;;;;5086983;28;20219;-32
2023/12/03 02:36:15;;;;;;;10.07;6.23;;;;;;;;;;5111879;28;20211;-34
2023/12/03 02:38:43;;;;;;;9.80;6.63;;;;;;;;;;5078300;28;20251;-33
2023/12/03 02:41:11;;;;;;;6.77;5.60;;;;;;;;;;5080784;28;20229;-35
2023/12/03 02:43:38;;;;;;;9.03;5.93;;;;;;;;;;5093381;28;21732;-36
2023/12/03 02:46:06;;;;;;;7.50;5.03;;;;;;;;;;5078852;28;20205;-29
2023/12/03 02:48:33;;;;;;;8.70;5.60;;;;;;;;;;5109329;28;20745;-32
2023/12/03 02:51:00;;;;;;;7.93;6.37;;;;;;;;;;5096985;28;20228;-32
2023/12/03 02:53:27;;;;;;;7.83;5.40;;;;;;;;;;5085595;28;20205;-31
2023/12/03 02:55:54;;;;;;;7.70;5.53;;;;;;;;;;5089567;28;20204;-33
2023/12/03 02:58:23;;;;;;;5.73;3.87;;;;;;;;;;5105692;28;20211;-36
2023/12/03 03:00:50;;;;;;;6.93;5.57;;;;;;;;;;5072830;28;20220;-35
2023/12/03 03:03:17;;;;;;;6.53;5.13;;;;;;;;;;5086660;28;20213;-31
2023/12/03 03:05:44;;;;;;;6.67;4.60;;;;;;;;;;5082664;28;20225;-30
2023/12/03 03:08:11;;;;;;;6.87;4.90;;;;;;;;;;5089004;28;20211;-30
2023/12/03 03:10:38;;;;;;;6.17;4.90;;;;;;;;;;5095912;28;20820;-36
2023/12/03 03:13:05;;;;;;;7.60;5.80;;;;;;;;;;5101724;28;20203;-36
2023/12/03 03:15:34;;;;;;;7.93;5.80;;;;;;;;;;5078007;28;20218;-36
2023/12/03 03:18:01;;;;;;;6.07;4.00;;;;;;;;;;5104493;28;20294;-36
2023/12/03 03:20:29;;;;;;;6.63;4.63;;;;;;;;;;5085037;28;20211;-34
2023/12/03 03:22:56;;;;;;;6.60;4.60;;;;;;;;;;5091543;28;20224;-30
2023/12/03 03:25:23;;;;;;;5.37;4.47;;;;;;;;;;5075367;28;20224;-36
2023/12/03 03:27:50;;;;;;;5.73;4.20;;;;;;;;;;5098425;28;20216;-38
2023/12/03 03:30:17;;;;;;;6.00;4.67;;;;;;;;;;5074325;28;20200;-39
2023/12/03 03:32:46;;;;;;;6.23;4.30;;;;;;;;;;5096260;28;20207;-34
2023/12/03 03:35:13;;;;;;;6.80;5.23;;;;;;;;;;5094959;28;20217;-39
2023/12/03 03:37:40;;;;;;;6.80;4.97;;;;;;;;;;5092972;28;20212;-35
2023/12/03 03:40:08;;;;;;;5.97;3.97;;;;;;;;;;5087993;28;20278;-34
2023/12/03 03:42:35;;;;;;;6.47;4.53;;;;;;;;;;5100568;28;20227;-37
2023/12/03 03:45:02;;;;;;;6.50;4.90;;;;;;;;;;5088794;28;20248;-35
2023/12/03 03:47:31;;;;;;;5.30;4.73;;;;;;;;;;5088971;28;20204;-33
2023/12/03 03:50:00;;;;;;;6.37;4.67;;;;;;;;;;5094912;28;20204;-34
2023/12/03 03:52:27;;;;;;;5.00;3.87;;;;;;;;;;5093554;28;20672;-37
2023/12/03 03:54:55;;;;;;;6.27;3.90;;;;;;;;;;5087668;28;20216;-35
2023/12/03 03:57:22;;;;;;;5.80;4.00;;;;;;;;;;5088804;28;20197;-38
2023/12/03 03:59:49;;;;;;;4.33;3.90;;;;;;;;;;5076919;28;20226;-36
2023/12/03 04:02:16;;;;;;;4.57;3.83;;;;;;;;;;5086810;28;20218;-34
2023/12/03 04:04:44;;;;;;;6.33;4.73;;;;;;;;;;5085606;28;20226;-32
2023/12/03 04:07:13;;;;;;;6.07;4.63;;;;;;;;;;5089051;28;20205;-37
2023/12/03 04:09:40;;;;;;;7.63;4.43;;;;;;;;;;5084969;28;20269;-32
2023/12/03 04:12:07;;;;;;;5.50;4.43;;;;;;;;;;5090507;28;20205;-35
2023/12/03 04:14:35;;;;;;;6.07;4.23;;;;;;;;;;5087001;28;20231;-36
2023/12/03 04:17:02;;;;;;;7.43;4.57;;;;;;;;;;5093091;28;20251;-31
2023/12/03 04:19:30;;;;;;;6.63;4.90;;;;;;;;;;5091863;28;20215;-35
2023/12/03 04:21:57;;;;;;;5.93;4.53;;;;;;;;;;5093354;28;20219;-33
2023/12/03 04:24:26;;;;;;;7.03;4.40;;;;;;;;;;5080681;28;20228;-33
2023/12/03 04:26:53;;;;;;;5.00;4.33;;;;;;;;;;5082804;28;20205;-34
2023/12/03 04:29:20;;;;;;;7.03;5.00;;;;;;;;;;5083333;28;20614;-34
2023/12/03 04:31:49;;;;;;;6.97;4.57;;;;;;;;;;5088131;28;20192;-34
2023/12/03 04:34:16;;;;;;;5.83;4.50;;;;;;;;;;5088394;28;20244;-39
2023/12/03 04:36:43;;;;;;;6.17;4.33;;;;;;;;;;5093256;28;20212;-33
2023/12/03 04:39:10;;;;;;;6.50;4.90;;;;;;;;;;5081107;28;20224;-34
2023/12/03 04:41:38;;;;;;;6.50;4.87;;;;;;;;;;5089871;28;20230;-37
2023/12/03 04:44:05;;;;;;;6.00;4.50;;;;;;;;;;5093940;28;20221;-32
2023/12/03 04:46:32;;;;;;;5.60;4.40;;;;;;;;;;5078882;28;20215;-32
2023/12/03 04:48:59;;;;;;;8.47;5.13;;;;;;;;;;5103941;28;20214;-35
2023/12/03 04:51:27;;;;;;;5.63;4.33;;;;;;;;;;5095281;28;20208;-32
2023/12/03 04:53:54;;;;;;;6.77;4.37;;;;;;;;;;5068670;28;20229;-34
2023/12/03 04:56:21;;;;;;;6.50;4.77;;;;;;;;;;5084958;28;20211;-36
2023/12/03 04:58:49;;;;;;;5.27;4.23;;;;;;;;;;5085803;28;20205;-35
2023/12/03 05:01:18;;;;;;;6.37;4.73;;;;;;;;;;5077185;28;20214;-33
2023/12/03 05:03:45;;;;;;;7.83;4.90;;;;;;;;;;5087318;28;20705;-34
2023/12/03 05:06:13;;;;;;;6.03;4.80;;;;;;;;;;5096812;28;20211;-34
2023/12/03 05:08:40;;;;;;;8.40;5.83;;;;;;;;;;5079494;28;20213;-34
2023/12/03 05:11:07;;;;;;;5.27;4.00;;;;;;;;;;5093397;28;20318;-36
2023/12/03 05:13:34;;;;;;;5.93;4.20;;;;;;;;;;5100303;28;20562;-32
2023/12/03 05:16:04;;;;;;;6.43;4.60;;;;;;;;;;5094027;28;20207;-37
2023/12/03 05:18:31;;;;;;;6.67;4.63;;;;;;;;;;5070856;28;20216;-33
2023/12/03 05:20:58;;;;;;;7.00;4.50;;;;;;;;;;5076487;28;20200;-33
2023/12/03 05:23:26;;;;;;;7.70;4.87;;;;;;;;;;5085883;28;20238;-35
2023/12/03 05:25:53;;;;;;;6.03;4.27;;;;;;;;;;5095615;28;20199;-31
2023/12/03 05:28:21;;;;;;;7.60;4.63;;;;;;;;;;5103386;28;20287;-30
2023/12/03 05:30:48;;;;;;;7.37;4.87;;;;;;;;;;5080518;28;20271;-35
2023/12/03 05:33:16;;;;;;;6.53;4.67;;;;;;;;;;5084950;28;20204;-35
2023/12/03 05:35:43;;;;;;;6.80;4.57;;;;;;;;;;5098026;28;20246;-34
2023/12/03 05:38:11;;;;;;;6.30;4.30;;;;;;;;;;5086274;28;20207;-39
2023/12/03 05:40:38;;;;;;;7.73;4.67;;;;;;;;;;5073858;28;20215;-38
2023/12/03 05:43:05;;;;;;;6.40;4.40;;;;;;;;;;5090342;28;20225;-36
2023/12/03 05:45:32;;;;;;;6.80;4.73;;;;;;;;;;5073964;28;20234;-39
2023/12/03 05:47:59;;;;;;;9.60;5.70;;;;;;;;;;5103578;28;20204;-35
2023/12/03 05:50:27;;;;;;;6.60;5.23;;;;;;;;;;5090147;28;20201;-36
2023/12/03 05:52:55;;;;;;;5.37;4.63;;;;;;;;;;5085482;28;20296;-38
2023/12/03 05:55:22;;;;;;;8.17;4.53;;;;;;;;;;5091343;28;20224;-32
2023/12/03 05:57:49;;;;;;;4.97;4.27;;;;;;;;;;5085198;28;20232;-30
2023/12/03 06:00:16;;;;;;;7.00;4.63;;;;;;;;;;5077224;28;20203;-37
2023/12/03 06:02:44;;;;;;;7.83;5.37;;;;;;;;;;5091142;28;20234;-37
2023/12/03 06:05:11;;;;;;;6.13;4.37;;;;;;;;;;5083407;28;20315;-34
2023/12/03 06:07:39;;;;;;;7.93;5.40;;;;;;;;;;5090590;28;20208;-32
2023/12/03 06:10:08;;;;;;;6.63;4.87;;;;;;;;;;5086207;28;20200;-38
2023/12/03 06:12:35;;;;;;;7.10;5.53;;;;;;;;;;5086010;28;20213;-32
2023/12/03 06:15:03;;;;;;;7.80;5.37;;;;;;;;;;5087507;28;20219;-32
2023/12/03 06:17:30;;;;;;;8.27;5.27;;;;;;;;;;5092735;28;20216;-32
2023/12/03 06:19:57;;;;;;;8.13;5.30;;;;;;;;;;5096888;28;20200;-29
2023/12/03 06:22:24;;;;;;;7.07;5.60;;;;;;;;;;5088119;28;20253;-33
2023/12/03 06:24:53;;;;;;;8.60;4.93;;;;;;;;;;5088781;28;20228;-35
2023/12/03 06:27:20;;;;;;;8.30;6.40;;;;;;;;;;5093155;28;20295;-33
2023/12/03 06:29:47;;;;;;;7.73;4.67;;;;;;;;;;5081596;28;20206;-33
2023/12/03 06:32:14;;;;;;;8.83;6.40;;;;;;;;;;5107322;28;20220;-38
2023/12/03 06:34:41;;;;;;;7.93;5.50;;;;;;;;;;5079805;28;20221;-38
2023/12/03 06:37:08;;;;;;;7.00;5.47;;;;;;;;;;5099145;28;20296;-36
2023/12/03 06:39:36;;;;;;;7.97;5.00;;;;;;;;;;5080544;28;20217;-31
2023/12/03 06:42:05;;;;;;;7.10;5.13;;;;;;;;;;5101497;28;20204;-35
2023/12/03 06:44:33;;;;;;;8.13;5.07;;;;;;;;;;5090090;28;20231;-33
2023/12/03 06:47:00;;;;;;;7.77;5.57;;;;;;;;;;5077443;28;20201;-35
2023/12/03 06:49:27;;;;;;;7.33;5.30;;;;;;;;;;5087293;28;20215;-33
2023/12/03 06:51:54;;;;;;;7.57;5.63;;;;;;;;;;5089733;28;20216;-30
2023/12/03 06:54:21;;;;;;;9.27;6.33;;;;;;;;;;5091028;28;20466;-31
2023/12/03 06:56:48;;;;;;;7.97;5.60;;;;;;;;;;5092167;28;20201;-34
2023/12/03 06:59:17;;;;;;;7.70;5.83;;;;;;;;;;5084311;28;20209;-31
2023/12/03 07:01:44;;;;;;;7.33;5.47;;;;;;;;;;5092799;28;20208;-32
2023/12/03 07:04:11;;;;;;;8.03;5.17;;;;;;;;;;5077882;28;20239;-35
2023/12/03 07:06:39;;;;;;;6.57;5.23;;;;;;;;;;5083911;28;20212;-35
2023/12/03 07:09:06;;;;;;;6.07;4.90;;;;;;;;;;5110129;28;20207;-34
2023/12/03 07:11:33;;;;;;;6.97;5.07;;;;;;;;;;5088378;28;20491;-33
2023/12/03 07:14:00;;;;;;;7.30;5.07;;;;;;;;;;5080181;28;20220;-34
2023/12/03 07:16:29;;;;;;;5.33;4.30;;;;;;;;;;5092925;28;20204;-30
2023/12/03 07:18:56;;;;;;;6.87;5.47;;;;;;;;;;5102008;28;20204;-32
2023/12/03 07:21:23;;;;;;;7.30;5.67;;;;;;;;;;5100223;28;20763;-33
2023/12/03 07:23:50;;;;;;;7.97;5.90;;;;;;;;;;5081643;28;20229;-33
2023/12/03 07:26:17;;;;;;;7.30;5.67;;;;;;;;;;5074185;28;20270;-37
2023/12/03 07:28:45;;;;;;;6.20;4.93;;;;;;;;;;5069700;28;20268;-34
2023/12/03 07:31:23;;;;;;;9.60;6.53;;;;;;;;;;5084583;28;20205;-30
2023/12/03 07:33:51;;;;;;;8.63;5.77;;;;;;;;;;5077210;28;20251;-34
2023/12/03 07:36:19;;;;;;;6.60;5.23;;;;;;;;;;5085423;28;20265;-34
2023/12/03 07:38:46;;;;;;;7.20;4.93;;;;;;;;;;5075103;28;20282;-32
2023/12/03 07:41:13;;;;;;;9.07;5.23;;;;;;;;;;5075093;28;20284;-32
2023/12/03 07:43:41;;;;;;;7.67;5.13;;;;;;;;;;5068605;28;20293;-31
2023/12/03 07:46:10;;;;;;;7.43;5.33;;;;;;;;;;5080365;28;20212;-33
2023/12/03 07:51:14;;;;;;;5.60;4.33;;;;;;;;;;5037018;22;20236;-24
2023/12/03 07:53:47;;;;;;;6.67;5.20;;;;;;;;;;5022126;28;20322;-26
2023/12/03 07:56:14;;;;;;;7.57;5.10;;;;;;;;;;5025780;28;20213;-25
2023/12/03 07:58:41;;;;;;;7.20;4.70;;;;;;;;;;5024193;28;20214;-24
2023/12/03 08:01:09;;;;;;;6.10;5.10;;;;;;;;;;5024310;28;20648;-24
2023/12/03 08:03:36;;;;;;;6.20;4.70;;;;;;;;;;5024039;28;20368;-24
2023/12/03 08:06:05;;;;;;;6.93;4.90;;;;;;;;;;5020792;28;20560;-26
2023/12/03 08:08:33;;;;;;;7.53;5.27;;;;;;;;;;5021913;28;20211;-26
2023/12/03 08:11:01;;;;;;;8.20;5.83;;;;;;;;;;5031267;28;20206;-26
2023/12/03 08:13:28;;;;;;;6.77;5.30;;;;;;;;;;5027863;28;20222;-24
2023/12/03 08:15:54;;;;;;;8.77;5.70;;;;;;;;;;5022747;28;20210;-26
2023/12/03 08:18:21;;;;;;;7.20;4.83;;;;;;;;;;5029158;28;20202;-25
2023/12/03 08:20:49;;;;;;;7.87;5.17;;;;;;;;;;5018780;28;20207;-27
2023/12/03 08:23:16;;;;;;;8.70;5.27;;;;;;;;;;5023150;28;20223;-24
2023/12/03 08:25:44;;;;;;;8.10;5.87;;;;;;;;;;5028916;28;20231;-26
2023/12/03 08:28:11;;;;;;;9.10;5.97;;;;;;;;;;5028658;28;20210;-25
2023/12/03 08:30:39;;;;;;;10.97;6.90;;;;;;;;;;5015699;28;20242;-25
2023/12/03 08:33:06;;;;;;;10.93;7.10;;;;;;;;;;5029302;28;20253;-27
2023/12/03 08:35:33;;;;;;;11.80;8.07;;;;;;;;;;5026759;28;20228;-26
2023/12/03 08:38:00;;;;;;;9.70;6.97;;;;;;;;;;5025564;28;20217;-25
2023/12/03 08:40:27;;;;;;;10.80;7.10;;;;;;;;;;5031248;28;20203;-25
2023/12/03 08:42:56;;;;;;;11.00;7.20;;;;;;;;;;5031659;28;20226;-27
2023/12/03 08:45:23;;;;;;;10.13;6.37;;;;;;;;;;5027842;28;20230;-26
2023/12/03 08:47:50;;;;;;;8.97;6.30;;;;;;;;;;5029670;28;20217;-26
2023/12/03 08:50:17;;;;;;;8.17;6.10;;;;;;;;;;5028592;28;20206;-27
2023/12/03 08:52:44;;;;;;;7.50;6.07;;;;;;;;;;5022163;28;20687;-25
2023/12/03 08:55:11;;;;;;;10.63;7.17;;;;;;;;;;5030255;28;20226;-27
2023/12/03 08:57:39;;;;;;;9.83;7.07;;;;;;;;;;5031987;28;20202;-25
2023/12/03 09:00:10;;;;;;;10.50;7.20;;;;;;;;;;5027185;28;20230;-25
2023/12/03 09:02:37;;;;;;;10.30;7.40;;;;;;;;;;5013669;28;20216;-25
2023/12/03 09:05:04;;;;;;;12.03;7.83;;;;;;;;;;5029170;28;20853;-27
2023/12/03 09:07:32;;;;;;;10.33;7.47;;;;;;;;;;5021727;28;20211;-24
2023/12/03 09:09:59;;;;;;;9.97;7.13;;;;;;;;;;5030780;28;20219;-25
2023/12/03 09:12:26;;;;;;;10.63;7.70;;;;;;;;;;5030676;28;20290;-28
2023/12/03 09:14:53;;;;;;;10.93;7.87;;;;;;;;;;5022141;28;20219;-26
2023/12/03 09:17:22;;;;;;;11.50;7.53;;;;;;;;;;5022564;28;20210;-27
2023/12/03 09:19:49;;;;;;;9.67;7.37;;;;;;;;;;5030657;28;20237;-26
2023/12/03 09:22:16;;;;;;;11.30;7.73;;;;;;;;;;5017900;28;20203;-27
2023/12/03 09:24:43;;;;;;;10.03;7.90;;;;;;;;;;5025414;28;20237;-27
2023/12/03 09:27:10;;;;;;;9.53;7.27;;;;;;;;;;5029220;28;20237;-27
2023/12/03 09:29:39;;;;;;;9.03;7.00;;;;;;;;;;5028641;28;20225;-26
2023/12/03 09:32:06;;;;;;;11.60;7.47;;;;;;;;;;5025936;28;20203;-25
2023/12/03 09:34:34;;;;;;;9.57;7.63;;;;;;;;;;5028369;28;20388;-25
2023/12/03 09:37:03;;;;;;;8.43;7.07;;;;;;;;;;5018114;28;20221;-28
2023/12/03 09:39:30;;;;;;;10.83;7.57;;;;;;;;;;5022552;28;20206;-26
2023/12/03 09:41:58;;;;;;;9.97;7.87;;;;;;;;;;5027560;28;20211;-26
2023/12/03 09:44:28;;;;;;;10.80;7.37;;;;;;;;;;5019610;28;20232;-24
2023/12/03 09:46:55;;;;;;;11.20;8.10;;;;;;;;;;5023225;28;20226;-26
2023/12/03 09:49:23;;;;;;;17.40;15.60;;;;;;;;;;5030311;28;20202;-25
2023/12/03 09:51:52;;;;;;;13.87;11.17;;;;;;;;;;5020980;28;20314;-26
2023/12/03 09:54:20;;;;;;;11.67;9.77;;;;;;;;;;5025612;28;20246;-28
2023/12/03 09:56:48;;;;;;;12.30;10.43;;;;;;;;;;5030455;28;20205;-25
2023/12/03 09:59:16;;;;;;;14.93;11.20;;;;;;;;;;5026753;28;20748;-27
2023/12/03 10:01:43;;;;;;;10.67;9.57;;;;;;;;;;5029952;28;20684;-27
2023/12/03 10:04:10;;;;;;;13.33;9.80;;;;;;;;;;5030256;28;20230;-27
2023/12/03 10:06:41;;;;;;;13.37;10.07;;;;;;;;;;5030122;28;20227;-25
2023/12/03 10:09:10;;;;;;;14.77;13.00;;;;;;;;;;5013729;28;20239;-26
2023/12/03 10:11:39;;;;;;;14.07;10.57;;;;;;;;;;5024962;28;20211;-26
2023/12/03 10:14:07;;;;;;;14.43;10.90;;;;;;;;;;5023923;28;20318;-25
2023/12/03 10:16:40;;;;;;;11.33;8.83;;;;;;;;;;5025764;28;20207;-26
2023/12/03 10:19:08;;;;;;;11.63;9.47;;;;;;;;;;5021630;28;20235;-26
2023/12/03 10:21:35;;;;;;;9.93;8.93;;;;;;;;;;5019147;28;20241;-26
2023/12/03 10:24:09;;;;;;;11.63;9.13;;;;;;;;;;5023225;28;20241;-24
2023/12/03 10:26:36;;;;;;;14.70;9.70;;;;;;;;;;5025206;28;20206;-27
2023/12/03 10:29:04;;;;;;;10.87;8.90;;;;;;;;;;5030838;28;20206;-26
2023/12/03 10:31:32;;;;;;;11.67;9.27;;;;;;;;;;5021456;28;20221;-25
2023/12/03 10:33:59;;;;;;;10.23;7.53;;;;;;;;;;5027288;28;20262;-25
2023/12/03 10:36:30;;;;;;;11.60;8.70;;;;;;;;;;5025548;28;20844;-27
2023/12/03 10:38:57;;;;;;;12.03;7.97;;;;;;;;;;5020181;28;20231;-27
2023/12/03 10:41:26;;;;;;;11.17;8.40;;;;;;;;;;5033734;28;20906;-25
2023/12/03 10:43:53;;;;;;;12.27;7.93;;;;;;;;;;5030838;28;20260;-26
2023/12/03 10:46:20;;;;;;;9.33;7.27;;;;;;;;;;5022665;28;20199;-25
2023/12/03 10:48:47;;;;;;;11.73;7.80;;;;;;;;;;5031965;28;20206;-25
2023/12/03 10:51:14;;;;;;;10.57;7.73;;;;;;;;;;5031983;28;20207;-25
2023/12/03 10:53:41;;;;;;;11.53;8.33;;;;;;;;;;5033755;28;20237;-26
2023/12/03 10:56:09;;;;;;;11.97;7.63;;;;;;;;;;5033779;28;20540;-27
2023/12/03 10:58:38;;;;;;;11.07;8.00;;;;;;;;;;5033476;28;20645;-26
2023/12/03 11:01:09;;;;;;;12.70;7.20;;;;;;;;;;5026608;28;20214;-25
2023/12/03 11:03:44;;;;;;;12.57;8.23;;;;;;;;;;5032823;28;20222;-25
2023/12/03 11:06:13;;;;;;;10.87;7.30;;;;;;;;;;5027240;28;20241;-28
2023/12/03 11:08:41;;;;;;;12.27;7.63;;;;;;;;;;5027382;28;20298;-24
2023/12/03 11:11:09;;;;;;;11.17;7.17;;;;;;;;;;5033309;28;20215;-26
2023/12/03 11:13:38;;;;;;;13.10;8.10;;;;;;;;;;5028805;28;20206;-26
2023/12/03 11:16:06;;;;;;;13.23;8.57;;;;;;;;;;5025977;28;20298;-28
2023/12/03 11:18:34;;;;;;;10.03;7.37;;;;;;;;;;5033768;28;20217;-25
2023/12/03 11:21:08;;;;;;;10.53;7.77;;;;;;;;;;5027395;28;20202;-25
2023/12/03 11:23:41;;;;;;;10.97;7.70;;;;;;;;;;5029333;28;20222;-26
2023/12/03 11:26:11;;;;;;;11.80;8.20;;;;;;;;;;5033058;28;20256;-26
2023/12/03 11:28:50;;;;;;;12.07;8.70;;;;;;;;;;5027146;28;20213;-25
2023/12/03 11:31:17;;;;;;;10.33;7.60;;;;;;;;;;5036197;28;20211;-25
2023/12/03 11:33:52;;;;;;;11.50;8.30;;;;;;;;;;5031836;28;20221;-29
2023/12/03 11:36:20;;;;;;;12.77;8.23;;;;;;;;;;5027091;28;20209;-27
2023/12/03 11:38:48;;;;;;;11.57;7.87;;;;;;;;;;5022533;28;20295;-27
2023/12/03 11:41:19;;;;;;;11.23;7.40;;;;;;;;;;5032619;28;20236;-29
2023/12/03 11:43:47;;;;;;;10.27;7.53;;;;;;;;;;5019508;28;20320;-28
2023/12/03 11:46:14;;;;;;;12.77;8.13;;;;;;;;;;5022574;28;20215;-27
2023/12/03 11:48:41;;;;;;;11.67;7.07;;;;;;;;;;5029086;28;20289;-28
2023/12/03 11:51:09;;;;;;;12.10;7.67;;;;;;;;;;5023452;28;20199;-27
2023/12/03 11:53:39;;;;;;;11.23;7.80;;;;;;;;;;5027213;28;20229;-28
2023/12/03 11:56:08;;;;;;;10.10;6.93;;;;;;;;;;5032577;28;20214;-28
2023/12/03 11:58:35;;;;;;;11.23;6.90;;;;;;;;;;5031136;28;20209;-26
2023/12/03 12:01:04;;;;;;;10.77;7.30;;;;;;;;;;5017838;28;20211;-30
2023/12/03 12:03:31;;;;;;;9.77;7.17;;;;;;;;;;5026483;28;20209;-27
2023/12/03 12:05:58;;;;;;;10.60;7.27;;;;;;;;;;5026240;28;20583;-29
2023/12/03 12:08:25;;;;;;;8.93;6.93;;;;;;;;;;5026653;28;20214;-30
2023/12/03 12:10:53;;;;;;;11.30;7.30;;;;;;;;;;5032837;28;20289;-27
2023/12/03 12:13:20;;;;;;;9.67;7.17;;;;;;;;;;5028739;28;20202;-27
2023/12/03 12:15:48;;;;;;;9.70;7.13;;;;;;;;;;5026631;28;20214;-26
2023/12/03 12:18:19;;;;;;;13.17;7.83;;;;;;;;;;5031477;28;20210;-27
2023/12/03 12:20:46;;;;;;;10.23;7.03;;;;;;;;;;5025539;28;20265;-26
2023/12/03 12:23:13;;;;;;;11.27;7.67;;;;;;;;;;5020243;28;20271;-28
2023/12/03 12:25:41;;;;;;;10.40;7.37;;;;;;;;;;5025853;28;20239;-27
2023/12/03 12:28:08;;;;;;;11.07;7.10;;;;;;;;;;5031890;28;20217;-28
2023/12/03 12:30:35;;;;;;;10.43;7.97;;;;;;;;;;5027349;28;20720;-28
2023/12/03 12:33:03;;;;;;;13.17;8.23;;;;;;;;;;5040710;28;20298;-28
2023/12/03 12:35:38;;;;;;;13.70;7.80;;;;;;;;;;5029265;28;20309;-27
2023/12/03 12:38:06;;;;;;;10.43;7.43;;;;;;;;;;5023211;28;20221;-27
2023/12/03 12:40:37;;;;;;;11.57;7.73;;;;;;;;;;5028756;28;20554;-30
2023/12/03 12:43:06;;;;;;;12.27;6.90;;;;;;;;;;5028719;28;20202;-29
2023/12/03 12:45:33;;;;;;;10.97;7.80;;;;;;;;;;5017407;28;20226;-29
2023/12/03 12:48:00;;;;;;;12.17;8.10;;;;;;;;;;5027687;28;20214;-27
2023/12/03 12:50:34;;;;;;;11.63;7.40;;;;;;;;;;5023289;28;20214;-32
2023/12/03 12:53:03;;;;;;;10.97;7.60;;;;;;;;;;5024373;28;20211;-28
2023/12/03 12:55:31;;;;;;;12.33;8.20;;;;;;;;;;5031567;28;20227;-29
2023/12/03 12:57:58;;;;;;;13.13;8.67;;;;;;;;;;5031802;28;20203;-28
2023/12/03 13:00:26;;;;;;;11.63;7.73;;;;;;;;;;5015559;28;20217;-27
2023/12/03 13:02:54;;;;;;;11.53;8.37;;;;;;;;;;5024770;28;20211;-29
2023/12/03 13:05:22;;;;;;;9.27;7.50;;;;;;;;;;5027829;28;20650;-30
2023/12/03 13:07:49;;;;;;;11.80;7.37;;;;;;;;;;5019499;28;20213;-27
2023/12/03 13:10:18;;;;;;;10.33;7.30;;;;;;;;;;5030030;28;20215;-27
2023/12/03 13:12:45;;;;;;;11.20;7.47;;;;;;;;;;5029452;28;20218;-29
2023/12/03 13:15:12;;;;;;;11.40;7.97;;;;;;;;;;5019971;28;20599;-28
2023/12/03 13:17:46;;;;;;;12.43;7.57;;;;;;;;;;5030155;28;20215;-28
2023/12/03 13:20:14;;;;;;;11.40;7.57;;;;;;;;;;5031112;28;20264;-28
2023/12/03 13:22:41;;;;;;;11.57;7.87;;;;;;;;;;5014048;28;20292;-28
2023/12/03 13:25:09;;;;;;;9.53;7.47;;;;;;;;;;5027421;28;20510;-29
2023/12/03 13:27:38;;;;;;;12.73;8.93;;;;;;;;;;5030949;28;20210;-29
2023/12/03 13:30:05;;;;;;;9.40;7.17;;;;;;;;;;5027413;28;20202;-27
2023/12/03 13:32:34;;;;;;;11.80;8.23;;;;;;;;;;5028275;28;20199;-28
2023/12/03 13:35:01;;;;;;;10.73;7.40;;;;;;;;;;5030360;28;20222;-27
2023/12/03 13:37:28;;;;;;;11.63;7.87;;;;;;;;;;5026724;28;20214;-27
2023/12/03 13:39:56;;;;;;;11.00;7.47;;;;;;;;;;5030031;28;20222;-28
2023/12/03 13:42:23;;;;;;;10.90;7.60;;;;;;;;;;5030933;28;20202;-28
2023/12/03 13:44:52;;;;;;;11.77;7.70;;;;;;;;;;5031068;28;20230;-27
2023/12/03 13:47:19;;;;;;;10.90;7.33;;;;;;;;;;5024027;28;20213;-26
2023/12/03 13:49:46;;;;;;;11.07;7.87;;;;;;;;;;5032712;28;20271;-28
2023/12/03 13:52:13;;;;;;;10.13;7.13;;;;;;;;;;5016248;28;20225;-26
2023/12/03 13:54:40;;;;;;;11.27;7.80;;;;;;;;;;5025442;28;20305;-28
2023/12/03 13:57:08;;;;;;;11.57;8.70;;;;;;;;;;5023073;28;20194;-28
2023/12/03 13:59:35;;;;;;;9.30;7.20;;;;;;;;;;5024276;28;20214;-29
2023/12/03 14:02:05;;;;;;;12.73;8.57;;;;;;;;;;5024403;28;20299;-28
2023/12/03 14:04:32;;;;;;;9.87;7.20;;;;;;;;;;5027596;28;20242;-29
2023/12/03 14:07:00;;;;;;;11.60;7.57;;;;;;;;;;5015374;28;20211;-28
2023/12/03 14:09:27;;;;;;;11.90;8.33;;;;;;;;;;5019283;28;20221;-30
2023/12/03 14:11:54;;;;;;;14.97;7.40;;;;;;;;;;5028394;28;20293;-29
2023/12/03 14:14:21;;;;;;;11.80;7.77;;;;;;;;;;5018594;28;20245;-29
2023/12/03 14:16:55;;;;;;;8.97;7.03;;;;;;;;;;5021156;28;20207;-29
2023/12/03 14:19:24;;;;;;;12.57;7.57;;;;;;;;;;5026007;28;20684;-27
2023/12/03 14:21:51;;;;;;;12.20;7.67;;;;;;;;;;5016787;28;20233;-29
2023/12/03 14:24:18;;;;;;;13.50;8.00;;;;;;;;;;5018690;28;20219;-29
2023/12/03 14:26:46;;;;;;;12.47;8.13;;;;;;;;;;5024466;28;20214;-29
2023/12/03 14:29:13;;;;;;;12.07;7.47;;;;;;;;;;5031186;28;20285;-27
2023/12/03 14:31:41;;;;;;;9.90;7.23;;;;;;;;;;5017836;28;20206;-26
2023/12/03 14:34:08;;;;;;;11.63;7.63;;;;;;;;;;5031220;28;20268;-27
2023/12/03 14:36:37;;;;;;;12.63;7.67;;;;;;;;;;5022378;28;20665;-29
2023/12/03 14:39:05;;;;;;;10.57;7.17;;;;;;;;;;5019446;28;20565;-29
2023/12/03 14:41:32;;;;;;;11.33;7.97;;;;;;;;;;5031146;28;20211;-27
2023/12/03 14:44:00;;;;;;;10.90;7.60;;;;;;;;;;5031083;28;20238;-27